Talladega, Alabama
Current Conditions -  °F | °C
As of 9:35 AM on Friday 28 Nov 2014 (Local Time) from KASN Reporting Station
Clear Clear  
Wind Chill:   Ceiling: Unl
Heat Index:   Visibility: 10mi
Dew Point: -5°   Wind: 3mph
Humidity: 55%   Direction: 20°NNE
Pressure: 30.48"   Gusts: NA
Location:  33.43°N, 86.1°W
Report Text: KASN 281535Z AUTO 02003KT 10SM CLR 03/M05 A3048 RMK AO2 T00311051
Loading
Personal Weather Stations






























Interactive Weather Map New forecast layout! Learn more

10-Day Weather Forecast

Advertisements
Track Severe Weather on mobile